createdAt,value
2018-03-23T00:04:45.223Z,103.53
2018-03-23T00:09:46.220Z,99.17
2018-03-23T00:14:47.196Z,103.37
2018-03-23T00:19:48.171Z,93.07
2018-03-23T00:24:49.159Z,86.80
2018-03-23T00:29:50.127Z,98.67
2018-03-23T00:34:51.116Z,104.63
2018-03-23T00:39:52.095Z,84.13
2018-03-23T00:44:53.080Z,77.20
2018-03-23T00:49:54.075Z,93.90
2018-03-23T00:54:55.055Z,90.23
2018-03-23T00:59:56.075Z,104.50
2018-03-23T01:04:57.079Z,92.87
2018-03-23T01:09:58.087Z,83.03
2018-03-23T01:14:59.103Z,107.77
2018-03-23T01:20:00.120Z,69.00
2018-03-23T01:25:01.138Z,94.37
2018-03-23T01:30:02.156Z,90.37
2018-03-23T01:35:03.171Z,96.70
2018-03-23T01:40:04.151Z,85.37
2018-03-23T01:45:05.141Z,91.20
2018-03-23T01:50:06.147Z,85.40
2018-03-23T01:55:07.150Z,90.80
2018-03-23T02:00:08.147Z,94.70
2018-03-23T02:05:09.148Z,81.80
2018-03-23T02:10:10.133Z,81.63
2018-03-23T02:15:11.120Z,82.80
2018-03-23T02:20:12.135Z,85.73
2018-03-23T02:25:13.879Z,77.27
2018-03-23T02:30:14.879Z,69.67
2018-03-23T02:35:15.896Z,78.77
2018-03-23T02:40:17.645Z,77.37
2018-03-23T02:45:18.655Z,75.27
2018-03-23T02:50:19.672Z,77.23
2018-03-23T02:55:21.385Z,84.47
2018-03-23T03:00:22.383Z,74.77
2018-03-23T03:05:23.406Z,84.93
2018-03-23T03:10:24.420Z,92.03
2018-03-23T03:15:26.183Z,82.70
2018-03-23T03:20:27.188Z,86.50
2018-03-23T03:25:28.952Z,94.30
2018-03-23T03:30:29.993Z,88.27
2018-03-23T03:35:30.991Z,96.30
2018-03-23T03:40:32.008Z,74.87
2018-03-23T03:45:33.047Z,87.67
2018-03-23T03:50:34.060Z,88.03
2018-03-23T03:55:35.085Z,93.87
2018-03-23T04:00:36.832Z,90.67
2018-03-23T04:05:37.847Z,94.70
2018-03-23T04:10:38.863Z,80.00
2018-03-23T04:15:40.677Z,102.23
2018-03-23T04:20:41.640Z,89.63
2018-03-23T04:25:43.404Z,95.53
2018-03-23T04:30:44.425Z,110.30
2018-03-23T04:35:46.177Z,84.27
2018-03-23T04:40:47.175Z,89.87
2018-03-23T04:45:48.202Z,108.83
2018-03-23T04:50:49.211Z,99.30
2018-03-23T04:55:50.202Z,100.83
2018-03-23T05:00:51.210Z,95.27
2018-03-23T05:05:52.211Z,103.30
2018-03-23T05:10:53.968Z,98.27
2018-03-23T05:15:54.971Z,96.97
2018-03-23T05:20:55.954Z,102.10
2018-03-23T05:25:56.971Z,112.87
2018-03-23T05:30:58.702Z,110.13
2018-03-23T05:35:59.721Z,121.50
2018-03-23T05:41:00.723Z,121.60
2018-03-23T05:46:01.721Z,115.93
2018-03-23T05:51:03.456Z,127.90
2018-03-23T05:56:04.470Z,108.27
2018-03-23T06:01:05.500Z,132.57
2018-03-23T06:06:06.560Z,122.57
2018-03-23T06:11:08.324Z,122.37
2018-03-23T06:16:09.335Z,130.07
2018-03-23T06:21:10.323Z,98.27
2018-03-23T06:26:12.171Z,77.27
2018-03-23T06:31:13.163Z,93.03
2018-03-23T06:36:14.185Z,85.97
2018-03-23T06:41:15.233Z,90.00
2018-03-23T06:46:16.278Z,94.60
2018-03-23T06:51:17.267Z,85.57
2018-03-23T06:56:18.263Z,104.97
2018-03-23T07:01:19.273Z,94.50
2018-03-23T07:06:20.279Z,106.13
2018-03-23T07:11:21.303Z,109.60
2018-03-23T07:16:22.343Z,103.50
2018-03-23T07:21:23.375Z,110.80
2018-03-23T07:26:24.395Z,99.53
2018-03-23T07:31:25.409Z,116.43
2018-03-23T07:36:27.170Z,115.33
2018-03-23T07:41:28.193Z,102.23
2018-03-23T07:46:29.948Z,98.87
2018-03-23T07:51:30.999Z,84.67
2018-03-23T07:56:32.011Z,97.40
2018-03-23T08:01:33.079Z,93.40
2018-03-23T08:06:34.108Z,91.73
2018-03-23T08:11:35.184Z,99.87
2018-03-23T08:16:36.206Z,110.90
2018-03-23T08:21:37.976Z,99.53
2018-03-23T08:26:38.984Z,91.63
2018-03-23T08:31:40.748Z,97.20
2018-03-23T08:36:41.759Z,105.07
2018-03-23T08:41:42.831Z,97.57
2018-03-23T08:46:43.790Z,119.23
2018-03-23T08:51:44.818Z,115.30
2018-03-23T08:56:45.831Z,120.70
2018-03-23T09:01:46.839Z,122.47
2018-03-23T09:06:47.872Z,88.77
2018-03-23T09:11:48.883Z,100.87
2018-03-23T09:16:49.870Z,93.67
2018-03-23T09:21:50.878Z,96.10
2018-03-23T09:26:51.881Z,99.93
2018-03-23T09:31:52.888Z,83.90
2018-03-23T09:36:54.633Z,79.87
2018-03-23T09:41:55.639Z,88.77
2018-03-23T09:46:56.644Z,73.20
2018-03-23T09:51:58.577Z,67.67
2018-03-23T09:56:59.615Z,60.43
2018-03-23T10:02:00.644Z,63.60
2018-03-23T10:07:01.640Z,67.27
2018-03-23T10:12:02.650Z,68.80
2018-03-23T10:17:03.663Z,62.57
2018-03-23T10:22:05.434Z,66.03
2018-03-23T10:27:06.444Z,69.20
2018-03-23T10:32:08.203Z,66.73
2018-03-23T10:37:09.205Z,55.40
2018-03-23T10:42:10.224Z,57.73
2018-03-23T10:47:11.242Z,47.07
2018-03-23T10:52:12.248Z,52.73
2018-03-23T10:57:13.263Z,47.73
2018-03-23T11:07:57.296Z,42.23
2018-03-23T11:12:58.308Z,45.00
2018-03-23T11:18:00.063Z,44.40
2018-03-23T11:23:01.095Z,45.70
2018-03-23T11:28:02.103Z,42.03
2018-03-23T11:33:03.116Z,43.17
2018-03-23T11:38:04.184Z,40.67
2018-03-23T11:43:05.214Z,37.63
2018-03-23T11:48:06.951Z,39.50
2018-03-23T11:53:07.967Z,35.83
2018-03-23T11:58:08.951Z,34.97
2018-03-23T12:03:09.988Z,35.37
2018-03-23T12:08:10.996Z,34.97
2018-03-23T12:13:12.088Z,39.50
2018-03-23T12:18:13.099Z,32.80
2018-03-23T12:23:14.144Z,35.30
2018-03-23T12:28:15.160Z,32.27
2018-03-23T12:33:16.195Z,50.97
2018-03-23T12:38:17.199Z,34.90
2018-03-23T12:43:18.242Z,39.00
2018-03-23T12:48:19.277Z,39.40
2018-03-23T12:53:20.304Z,34.93
2018-03-23T12:58:21.331Z,40.20
2018-03-23T13:03:22.359Z,35.77
2018-03-23T13:08:23.360Z,36.73
2018-03-23T13:13:25.121Z,36.90
2018-03-23T13:18:26.112Z,40.20
2018-03-23T13:23:27.107Z,34.60
2018-03-23T13:28:28.868Z,36.20
2018-03-23T13:33:29.932Z,37.03
2018-03-23T13:38:30.970Z,37.07
2018-03-23T13:43:32.047Z,33.63
2018-03-23T13:48:33.069Z,30.90
2018-03-23T13:53:34.075Z,36.73
2018-03-23T13:58:41.086Z,33.60
2018-03-23T14:03:42.108Z,31.20
2018-03-23T14:08:43.140Z,31.23
2018-03-23T14:13:44.142Z,32.47
2018-03-23T14:18:45.150Z,34.63
2018-03-23T14:23:46.184Z,35.33
2018-03-23T14:28:47.258Z,32.27
2018-03-23T14:33:48.213Z,29.37
2018-03-23T14:38:49.234Z,29.03
2018-03-23T14:43:50.255Z,28.37
2018-03-23T14:48:51.309Z,28.67
2018-03-23T14:53:52.350Z,28.93
2018-03-23T14:58:59.378Z,28.57
2018-03-23T15:04:00.405Z,29.83
2018-03-23T15:09:01.432Z,30.50
2018-03-23T15:14:17.761Z,30.90
2018-03-23T15:19:18.768Z,29.30
2018-03-23T15:24:19.787Z,33.60
2018-03-23T15:29:20.771Z,32.30
2018-03-23T15:34:21.779Z,33.20
2018-03-23T15:39:22.781Z,32.87
2018-03-23T15:44:23.784Z,32.07
2018-03-23T15:49:24.792Z,33.40
2018-03-23T15:54:26.536Z,31.03
2018-03-23T15:59:27.540Z,38.87
2018-03-23T16:04:28.581Z,35.83
2018-03-23T16:09:29.616Z,37.63
2018-03-23T16:14:30.631Z,37.60
2018-03-23T16:19:31.644Z,39.83
2018-03-23T16:24:32.675Z,41.20
2018-03-23T16:29:34.429Z,41.17
2018-03-23T16:34:35.452Z,39.57
2018-03-23T16:39:37.227Z,42.23
2018-03-23T16:44:38.261Z,44.33
2018-03-23T16:49:39.403Z,44.20
2018-03-23T16:54:40.399Z,45.80
2018-03-23T16:59:41.408Z,41.47
2018-03-23T17:04:43.220Z,44.17
2018-03-23T17:09:44.244Z,51.60
2018-03-23T17:14:45.243Z,45.93
2018-03-23T17:19:46.256Z,40.47
2018-03-23T17:24:48.027Z,43.10
2018-03-23T17:29:49.079Z,36.83
2018-03-23T17:34:50.100Z,40.40
2018-03-23T17:39:51.111Z,37.97
2018-03-23T17:44:52.848Z,37.70
2018-03-23T17:49:53.896Z,35.80
2018-03-23T17:54:54.916Z,39.30
2018-03-23T17:59:55.928Z,44.93
2018-03-23T18:04:57.322Z,46.30
2018-03-23T18:09:59.123Z,46.13
2018-03-23T18:15:00.141Z,44.87
2018-03-23T18:20:01.150Z,41.67
2018-03-23T18:25:02.191Z,39.80
2018-03-23T18:30:03.947Z,39.17
2018-03-23T18:35:04.993Z,35.43
2018-03-23T18:40:06.044Z,38.30
2018-03-23T18:45:07.053Z,30.77
2018-03-23T18:50:08.060Z,33.23
2018-03-23T18:55:09.083Z,32.30
2018-03-23T19:00:10.108Z,33.77
2018-03-23T19:05:11.138Z,37.40
2018-03-23T19:10:12.152Z,34.60
2018-03-23T19:15:13.895Z,33.40
2018-03-23T19:20:14.923Z,37.10
2018-03-23T19:25:15.960Z,36.57
2018-03-23T19:30:17.032Z,35.00
2018-03-23T19:35:18.061Z,39.97
2018-03-23T19:40:19.086Z,38.90
2018-03-23T19:45:20.096Z,34.90
2018-03-23T19:50:21.110Z,37.07
2018-03-23T19:55:22.140Z,36.60
2018-03-23T20:00:23.135Z,42.70
2018-03-23T20:05:24.236Z,41.70
2018-03-23T20:10:25.251Z,41.07
2018-03-23T20:15:26.279Z,44.90
2018-03-23T20:20:33.478Z,46.80
2018-03-23T20:25:34.482Z,49.83
2018-03-23T20:30:35.503Z,54.10
2018-03-23T20:35:36.544Z,51.97
2018-03-23T20:40:37.788Z,47.67
2018-03-23T20:45:38.924Z,47.90
2018-03-23T20:50:39.901Z,51.07
2018-03-23T20:55:40.978Z,51.47
2018-03-23T21:00:42.775Z,43.73
2018-03-23T21:05:43.860Z,48.60
2018-03-23T21:10:45.639Z,50.67
2018-03-23T21:15:46.707Z,45.93
2018-03-23T21:20:47.820Z,46.40
2018-03-23T21:25:48.880Z,49.43
2018-03-23T21:30:49.891Z,53.67
2018-03-23T21:35:51.651Z,46.60
2018-03-23T21:40:52.688Z,50.80
2018-03-23T21:45:54.457Z,47.17
2018-03-23T21:50:55.459Z,48.23
2018-03-23T21:55:57.240Z,42.90
2018-03-23T22:00:58.275Z,46.33
2018-03-23T22:05:59.291Z,52.23
2018-03-23T22:11:00.420Z,50.57
2018-03-23T22:16:01.514Z,46.03
2018-03-23T22:21:02.543Z,48.20
2018-03-23T22:26:03.564Z,47.00
2018-03-23T22:31:05.371Z,47.67
2018-03-23T22:36:06.370Z,44.03
2018-03-23T22:41:07.391Z,49.67
2018-03-23T22:46:08.425Z,47.93
2018-03-23T22:51:09.467Z,45.30
2018-03-23T22:56:10.478Z,51.03
2018-03-23T23:01:11.488Z,51.03
2018-03-23T23:06:12.511Z,47.60
2018-03-23T23:11:13.520Z,74.27
2018-03-23T23:16:14.531Z,71.97
2018-03-23T23:21:15.543Z,50.07
2018-03-23T23:26:16.559Z,52.83
2018-03-23T23:31:17.600Z,45.63
2018-03-23T23:36:18.640Z,49.07
2018-03-23T23:41:19.640Z,56.50
2018-03-23T23:46:21.402Z,59.33
2018-03-23T23:51:22.411Z,46.47
2018-03-23T23:56:23.419Z,51.80
